sensor_id;sensor_type;location;lat;lon;timestamp;P1;durP1;ratioP1;P2;durP2;ratioP2
20122;SDS011;10222;50.848;4.336;2023-08-30T00:01:54;7.20;;;3.90;;
20122;SDS011;10222;50.848;4.336;2023-08-30T00:04:21;6.97;;;3.93;;
20122;SDS011;10222;50.848;4.336;2023-08-30T00:06:47;4.60;;;3.17;;
20122;SDS011;10222;50.848;4.336;2023-08-30T00:09:13;4.93;;;3.20;;
20122;SDS011;10222;50.848;4.336;2023-08-30T00:11:40;5.50;;;3.03;;
20122;SDS011;10222;50.848;4.336;2023-08-30T00:14:06;4.97;;;3.60;;
20122;SDS011;10222;50.848;4.336;2023-08-30T00:16:33;4.47;;;2.97;;
20122;SDS011;10222;50.848;4.336;2023-08-30T00:18:59;5.93;;;3.30;;
20122;SDS011;10222;50.848;4.336;2023-08-30T00:21:25;4.83;;;3.57;;
20122;SDS011;10222;50.848;4.336;2023-08-30T00:23:52;6.83;;;3.20;;
20122;SDS011;10222;50.848;4.336;2023-08-30T00:26:18;6.43;;;3.70;;
20122;SDS011;10222;50.848;4.336;2023-08-30T00:28:44;4.40;;;2.77;;
20122;SDS011;10222;50.848;4.336;2023-08-30T00:31:10;4.77;;;2.93;;
20122;SDS011;10222;50.848;4.336;2023-08-30T00:33:36;6.13;;;3.23;;
20122;SDS011;10222;50.848;4.336;2023-08-30T00:36:02;4.67;;;3.20;;
20122;SDS011;10222;50.848;4.336;2023-08-30T00:38:28;4.13;;;2.60;;
20122;SDS011;10222;50.848;4.336;2023-08-30T00:40:54;7.20;;;3.20;;
20122;SDS011;10222;50.848;4.336;2023-08-30T00:43:20;4.37;;;2.93;;
20122;SDS011;10222;50.848;4.336;2023-08-30T00:45:47;5.23;;;2.63;;
20122;SDS011;10222;50.848;4.336;2023-08-30T00:48:14;4.73;;;3.37;;
20122;SDS011;10222;50.848;4.336;2023-08-30T00:50:41;5.17;;;3.10;;
20122;SDS011;10222;50.848;4.336;2023-08-30T00:53:07;6.00;;;3.17;;
20122;SDS011;10222;50.848;4.336;2023-08-30T00:55:37;5.43;;;3.37;;
20122;SDS011;10222;50.848;4.336;2023-08-30T00:58:03;3.83;;;2.90;;
20122;SDS011;10222;50.848;4.336;2023-08-30T01:00:29;5.20;;;2.80;;
20122;SDS011;10222;50.848;4.336;2023-08-30T01:02:57;4.67;;;3.50;;
20122;SDS011;10222;50.848;4.336;2023-08-30T01:05:23;5.10;;;3.33;;
20122;SDS011;10222;50.848;4.336;2023-08-30T01:07:50;5.27;;;3.30;;
20122;SDS011;10222;50.848;4.336;2023-08-30T01:10:16;5.13;;;3.20;;
20122;SDS011;10222;50.848;4.336;2023-08-30T01:12:46;4.80;;;3.10;;
20122;SDS011;10222;50.848;4.336;2023-08-30T01:15:15;6.57;;;3.73;;
20122;SDS011;10222;50.848;4.336;2023-08-30T01:17:44;5.17;;;2.87;;
20122;SDS011;10222;50.848;4.336;2023-08-30T01:20:10;4.53;;;3.10;;
20122;SDS011;10222;50.848;4.336;2023-08-30T01:22:54;4.87;;;3.07;;
20122;SDS011;10222;50.848;4.336;2023-08-30T01:25:38;4.93;;;2.87;;
20122;SDS011;10222;50.848;4.336;2023-08-30T01:28:06;6.47;;;3.30;;
20122;SDS011;10222;50.848;4.336;2023-08-30T01:30:33;6.10;;;3.33;;
20122;SDS011;10222;50.848;4.336;2023-08-30T01:33:00;7.23;;;3.50;;
20122;SDS011;10222;50.848;4.336;2023-08-30T01:35:28;5.57;;;3.40;;
20122;SDS011;10222;50.848;4.336;2023-08-30T01:37:58;4.40;;;3.10;;
20122;SDS011;10222;50.848;4.336;2023-08-30T01:40:26;5.20;;;2.97;;
20122;SDS011;10222;50.848;4.336;2023-08-30T01:42:52;5.33;;;3.20;;
20122;SDS011;10222;50.848;4.336;2023-08-30T01:45:19;4.93;;;3.50;;
20122;SDS011;10222;50.848;4.336;2023-08-30T01:47:46;5.70;;;3.13;;
20122;SDS011;10222;50.848;4.336;2023-08-30T01:50:12;6.17;;;3.50;;
20122;SDS011;10222;50.848;4.336;2023-08-30T01:52:38;4.73;;;3.50;;
20122;SDS011;10222;50.848;4.336;2023-08-30T01:55:04;5.57;;;3.53;;
20122;SDS011;10222;50.848;4.336;2023-08-30T01:57:31;6.33;;;3.53;;
20122;SDS011;10222;50.848;4.336;2023-08-30T01:59:57;5.37;;;3.27;;
20122;SDS011;10222;50.848;4.336;2023-08-30T02:02:23;5.47;;;3.33;;
20122;SDS011;10222;50.848;4.336;2023-08-30T02:04:49;6.43;;;3.87;;
20122;SDS011;10222;50.848;4.336;2023-08-30T02:07:25;4.30;;;3.27;;
20122;SDS011;10222;50.848;4.336;2023-08-30T02:09:56;6.17;;;3.50;;
20122;SDS011;10222;50.848;4.336;2023-08-30T02:12:23;5.67;;;3.43;;
20122;SDS011;10222;50.848;4.336;2023-08-30T02:14:50;10.23;;;3.73;;
20122;SDS011;10222;50.848;4.336;2023-08-30T02:17:17;8.17;;;3.10;;
20122;SDS011;10222;50.848;4.336;2023-08-30T02:19:44;6.20;;;3.17;;
20122;SDS011;10222;50.848;4.336;2023-08-30T02:22:11;6.23;;;3.33;;
20122;SDS011;10222;50.848;4.336;2023-08-30T02:24:37;6.53;;;3.30;;
20122;SDS011;10222;50.848;4.336;2023-08-30T02:27:03;6.60;;;3.70;;
20122;SDS011;10222;50.848;4.336;2023-08-30T02:29:30;9.43;;;4.17;;
20122;SDS011;10222;50.848;4.336;2023-08-30T02:31:56;7.33;;;3.30;;
20122;SDS011;10222;50.848;4.336;2023-08-30T02:34:23;4.43;;;2.93;;
20122;SDS011;10222;50.848;4.336;2023-08-30T02:36:49;5.73;;;3.50;;
20122;SDS011;10222;50.848;4.336;2023-08-30T02:39:15;6.60;;;3.33;;
20122;SDS011;10222;50.848;4.336;2023-08-30T02:41:41;5.43;;;3.30;;
20122;SDS011;10222;50.848;4.336;2023-08-30T02:44:07;6.10;;;3.37;;
20122;SDS011;10222;50.848;4.336;2023-08-30T02:46:34;6.63;;;3.10;;
20122;SDS011;10222;50.848;4.336;2023-08-30T02:49:02;5.63;;;3.27;;
20122;SDS011;10222;50.848;4.336;2023-08-30T02:51:28;6.00;;;3.10;;
20122;SDS011;10222;50.848;4.336;2023-08-30T02:53:55;6.33;;;3.03;;
20122;SDS011;10222;50.848;4.336;2023-08-30T02:56:21;8.13;;;3.40;;
20122;SDS011;10222;50.848;4.336;2023-08-30T02:58:48;5.53;;;2.90;;
20122;SDS011;10222;50.848;4.336;2023-08-30T03:01:14;4.63;;;2.80;;
20122;SDS011;10222;50.848;4.336;2023-08-30T03:03:40;4.93;;;2.63;;
20122;SDS011;10222;50.848;4.336;2023-08-30T03:06:06;7.53;;;2.77;;
20122;SDS011;10222;50.848;4.336;2023-08-30T03:08:34;5.77;;;3.17;;
20122;SDS011;10222;50.848;4.336;2023-08-30T03:11:07;6.03;;;3.20;;
20122;SDS011;10222;50.848;4.336;2023-08-30T03:13:33;6.97;;;3.43;;
20122;SDS011;10222;50.848;4.336;2023-08-30T03:15:59;6.77;;;3.17;;
20122;SDS011;10222;50.848;4.336;2023-08-30T03:18:25;8.20;;;3.87;;
20122;SDS011;10222;50.848;4.336;2023-08-30T03:20:59;9.33;;;3.20;;
20122;SDS011;10222;50.848;4.336;2023-08-30T03:23:26;8.33;;;3.73;;
20122;SDS011;10222;50.848;4.336;2023-08-30T03:25:52;9.07;;;3.60;;
20122;SDS011;10222;50.848;4.336;2023-08-30T03:28:18;5.50;;;3.40;;
20122;SDS011;10222;50.848;4.336;2023-08-30T03:30:44;7.83;;;3.50;;
20122;SDS011;10222;50.848;4.336;2023-08-30T03:33:10;7.17;;;4.00;;
20122;SDS011;10222;50.848;4.336;2023-08-30T03:35:37;12.53;;;4.40;;
20122;SDS011;10222;50.848;4.336;2023-08-30T03:38:03;8.67;;;3.73;;
20122;SDS011;10222;50.848;4.336;2023-08-30T03:40:29;9.17;;;4.00;;
20122;SDS011;10222;50.848;4.336;2023-08-30T03:42:55;7.20;;;3.60;;
20122;SDS011;10222;50.848;4.336;2023-08-30T03:45:21;6.77;;;3.60;;
20122;SDS011;10222;50.848;4.336;2023-08-30T03:47:47;9.70;;;4.20;;
20122;SDS011;10222;50.848;4.336;2023-08-30T03:50:13;9.87;;;3.63;;
20122;SDS011;10222;50.848;4.336;2023-08-30T03:52:40;10.80;;;4.07;;
20122;SDS011;10222;50.848;4.336;2023-08-30T03:55:06;9.27;;;3.87;;
20122;SDS011;10222;50.848;4.336;2023-08-30T03:57:32;8.00;;;3.70;;
20122;SDS011;10222;50.848;4.336;2023-08-30T03:59:59;11.50;;;4.00;;
20122;SDS011;10222;50.848;4.336;2023-08-30T04:02:25;7.47;;;3.53;;
20122;SDS011;10222;50.848;4.336;2023-08-30T04:04:51;9.03;;;3.93;;
20122;SDS011;10222;50.848;4.336;2023-08-30T04:07:18;7.27;;;3.50;;
20122;SDS011;10222;50.848;4.336;2023-08-30T04:09:46;8.33;;;3.73;;
20122;SDS011;10222;50.848;4.336;2023-08-30T04:12:12;7.77;;;3.73;;
20122;SDS011;10222;50.848;4.336;2023-08-30T04:14:38;7.10;;;3.37;;
20122;SDS011;10222;50.848;4.336;2023-08-30T04:17:04;6.30;;;3.23;;
20122;SDS011;10222;50.848;4.336;2023-08-30T04:19:30;8.80;;;3.27;;
20122;SDS011;10222;50.848;4.336;2023-08-30T04:21:56;7.73;;;3.00;;
20122;SDS011;10222;50.848;4.336;2023-08-30T04:24:22;6.10;;;3.33;;
20122;SDS011;10222;50.848;4.336;2023-08-30T04:26:48;9.57;;;3.23;;
20122;SDS011;10222;50.848;4.336;2023-08-30T04:29:16;7.60;;;3.30;;
20122;SDS011;10222;50.848;4.336;2023-08-30T04:31:43;6.83;;;3.23;;
20122;SDS011;10222;50.848;4.336;2023-08-30T04:34:09;6.13;;;3.23;;
20122;SDS011;10222;50.848;4.336;2023-08-30T04:36:35;5.17;;;2.83;;
20122;SDS011;10222;50.848;4.336;2023-08-30T04:39:01;6.47;;;2.97;;
20122;SDS011;10222;50.848;4.336;2023-08-30T04:41:27;8.97;;;3.63;;
20122;SDS011;10222;50.848;4.336;2023-08-30T04:43:54;5.90;;;3.17;;
20122;SDS011;10222;50.848;4.336;2023-08-30T04:46:20;6.13;;;3.30;;
20122;SDS011;10222;50.848;4.336;2023-08-30T04:48:46;7.20;;;3.70;;
20122;SDS011;10222;50.848;4.336;2023-08-30T04:51:12;7.63;;;3.40;;
20122;SDS011;10222;50.848;4.336;2023-08-30T04:53:38;6.87;;;3.70;;
20122;SDS011;10222;50.848;4.336;2023-08-30T04:56:11;8.33;;;3.43;;
20122;SDS011;10222;50.848;4.336;2023-08-30T04:58:37;8.97;;;3.90;;
20122;SDS011;10222;50.848;4.336;2023-08-30T05:01:04;7.43;;;3.70;;
20122;SDS011;10222;50.848;4.336;2023-08-30T05:03:30;7.50;;;3.50;;
20122;SDS011;10222;50.848;4.336;2023-08-30T05:05:56;9.37;;;3.10;;
20122;SDS011;10222;50.848;4.336;2023-08-30T05:08:22;8.80;;;3.40;;
20122;SDS011;10222;50.848;4.336;2023-08-30T05:10:48;8.30;;;3.47;;
20122;SDS011;10222;50.848;4.336;2023-08-30T05:13:15;9.50;;;3.70;;
20122;SDS011;10222;50.848;4.336;2023-08-30T05:15:41;7.03;;;3.60;;
20122;SDS011;10222;50.848;4.336;2023-08-30T05:18:07;7.87;;;3.30;;
20122;SDS011;10222;50.848;4.336;2023-08-30T05:20:33;6.37;;;3.33;;
20122;SDS011;10222;50.848;4.336;2023-08-30T05:22:59;9.93;;;4.27;;
20122;SDS011;10222;50.848;4.336;2023-08-30T05:25:25;12.10;;;5.27;;
20122;SDS011;10222;50.848;4.336;2023-08-30T05:27:51;12.60;;;4.90;;
20122;SDS011;10222;50.848;4.336;2023-08-30T05:30:21;11.63;;;5.20;;
20122;SDS011;10222;50.848;4.336;2023-08-30T05:32:47;12.40;;;5.17;;
20122;SDS011;10222;50.848;4.336;2023-08-30T05:35:14;10.03;;;4.27;;
20122;SDS011;10222;50.848;4.336;2023-08-30T05:37:40;9.10;;;3.87;;
20122;SDS011;10222;50.848;4.336;2023-08-30T05:40:06;8.47;;;4.03;;
20122;SDS011;10222;50.848;4.336;2023-08-30T05:42:33;8.73;;;4.60;;
20122;SDS011;10222;50.848;4.336;2023-08-30T05:45:00;7.20;;;3.40;;
20122;SDS011;10222;50.848;4.336;2023-08-30T05:47:26;6.47;;;3.70;;
20122;SDS011;10222;50.848;4.336;2023-08-30T05:49:53;5.07;;;2.73;;
20122;SDS011;10222;50.848;4.336;2023-08-30T05:52:19;6.47;;;3.50;;
20122;SDS011;10222;50.848;4.336;2023-08-30T05:54:45;9.73;;;4.10;;
20122;SDS011;10222;50.848;4.336;2023-08-30T05:57:11;4.83;;;3.00;;
20122;SDS011;10222;50.848;4.336;2023-08-30T05:59:37;5.60;;;3.17;;
20122;SDS011;10222;50.848;4.336;2023-08-30T06:02:04;5.00;;;3.30;;
20122;SDS011;10222;50.848;4.336;2023-08-30T06:04:30;4.60;;;2.73;;
20122;SDS011;10222;50.848;4.336;2023-08-30T06:06:56;5.10;;;3.20;;
20122;SDS011;10222;50.848;4.336;2023-08-30T06:09:22;6.43;;;3.37;;
20122;SDS011;10222;50.848;4.336;2023-08-30T06:11:48;5.57;;;3.03;;
20122;SDS011;10222;50.848;4.336;2023-08-30T06:14:14;4.80;;;2.60;;
20122;SDS011;10222;50.848;4.336;2023-08-30T06:16:40;4.93;;;2.87;;
20122;SDS011;10222;50.848;4.336;2023-08-30T06:19:10;6.50;;;2.63;;
20122;SDS011;10222;50.848;4.336;2023-08-30T06:21:36;3.40;;;2.30;;
20122;SDS011;10222;50.848;4.336;2023-08-30T06:24:02;4.80;;;2.50;;
20122;SDS011;10222;50.848;4.336;2023-08-30T06:26:28;8.33;;;3.27;;
20122;SDS011;10222;50.848;4.336;2023-08-30T06:28:54;5.17;;;3.07;;
20122;SDS011;10222;50.848;4.336;2023-08-30T06:31:20;5.37;;;3.20;;
20122;SDS011;10222;50.848;4.336;2023-08-30T06:33:47;6.00;;;3.40;;
20122;SDS011;10222;50.848;4.336;2023-08-30T06:36:13;5.07;;;3.40;;
20122;SDS011;10222;50.848;4.336;2023-08-30T06:38:41;6.17;;;3.30;;
20122;SDS011;10222;50.848;4.336;2023-08-30T06:41:08;6.07;;;3.40;;
20122;SDS011;10222;50.848;4.336;2023-08-30T06:43:34;6.73;;;3.87;;
20122;SDS011;10222;50.848;4.336;2023-08-30T06:46:00;6.30;;;3.70;;
20122;SDS011;10222;50.848;4.336;2023-08-30T06:48:26;4.77;;;3.33;;
20122;SDS011;10222;50.848;4.336;2023-08-30T06:50:52;5.40;;;3.10;;
20122;SDS011;10222;50.848;4.336;2023-08-30T06:53:18;5.40;;;3.00;;
20122;SDS011;10222;50.848;4.336;2023-08-30T06:55:44;6.90;;;3.30;;
20122;SDS011;10222;50.848;4.336;2023-08-30T06:58:10;7.73;;;4.23;;
20122;SDS011;10222;50.848;4.336;2023-08-30T07:00:36;6.30;;;3.60;;
20122;SDS011;10222;50.848;4.336;2023-08-30T07:03:02;7.07;;;4.00;;
20122;SDS011;10222;50.848;4.336;2023-08-30T07:05:28;9.70;;;4.30;;
20122;SDS011;10222;50.848;4.336;2023-08-30T07:07:54;6.87;;;3.93;;
20122;SDS011;10222;50.848;4.336;2023-08-30T07:10:20;6.90;;;3.67;;
20122;SDS011;10222;50.848;4.336;2023-08-30T07:12:46;8.27;;;4.10;;
20122;SDS011;10222;50.848;4.336;2023-08-30T07:15:13;5.07;;;3.37;;
20122;SDS011;10222;50.848;4.336;2023-08-30T07:17:42;7.80;;;4.40;;
20122;SDS011;10222;50.848;4.336;2023-08-30T07:20:08;8.63;;;4.47;;
20122;SDS011;10222;50.848;4.336;2023-08-30T07:22:34;9.13;;;4.37;;
20122;SDS011;10222;50.848;4.336;2023-08-30T07:25:00;7.30;;;4.13;;
20122;SDS011;10222;50.848;4.336;2023-08-30T07:27:28;7.10;;;3.80;;
20122;SDS011;10222;50.848;4.336;2023-08-30T07:29:54;7.20;;;3.83;;
20122;SDS011;10222;50.848;4.336;2023-08-30T07:32:20;7.23;;;3.90;;
20122;SDS011;10222;50.848;4.336;2023-08-30T07:34:46;5.83;;;3.47;;
20122;SDS011;10222;50.848;4.336;2023-08-30T07:37:21;8.00;;;3.70;;
20122;SDS011;10222;50.848;4.336;2023-08-30T07:39:47;5.80;;;3.27;;
20122;SDS011;10222;50.848;4.336;2023-08-30T07:42:14;6.17;;;3.67;;
20122;SDS011;10222;50.848;4.336;2023-08-30T07:44:41;6.13;;;3.53;;
20122;SDS011;10222;50.848;4.336;2023-08-30T07:47:07;6.83;;;3.57;;
20122;SDS011;10222;50.848;4.336;2023-08-30T07:49:33;6.27;;;3.53;;
20122;SDS011;10222;50.848;4.336;2023-08-30T07:51:59;4.83;;;3.50;;
20122;SDS011;10222;50.848;4.336;2023-08-30T07:54:25;8.17;;;3.70;;
20122;SDS011;10222;50.848;4.336;2023-08-30T07:56:51;6.50;;;3.40;;
20122;SDS011;10222;50.848;4.336;2023-08-30T07:59:17;7.07;;;3.53;;
20122;SDS011;10222;50.848;4.336;2023-08-30T08:01:43;7.63;;;3.50;;
20122;SDS011;10222;50.848;4.336;2023-08-30T08:04:09;6.97;;;3.53;;
20122;SDS011;10222;50.848;4.336;2023-08-30T08:06:35;6.07;;;3.33;;
20122;SDS011;10222;50.848;4.336;2023-08-30T08:09:01;5.90;;;3.40;;
20122;SDS011;10222;50.848;4.336;2023-08-30T08:11:27;5.83;;;2.80;;
20122;SDS011;10222;50.848;4.336;2023-08-30T08:13:54;5.97;;;3.63;;
20122;SDS011;10222;50.848;4.336;2023-08-30T08:16:20;8.40;;;3.27;;
20122;SDS011;10222;50.848;4.336;2023-08-30T08:18:46;5.67;;;2.87;;
20122;SDS011;10222;50.848;4.336;2023-08-30T08:21:12;6.40;;;3.33;;
20122;SDS011;10222;50.848;4.336;2023-08-30T08:23:38;6.10;;;2.60;;
20122;SDS011;10222;50.848;4.336;2023-08-30T08:26:04;7.07;;;3.33;;
20122;SDS011;10222;50.848;4.336;2023-08-30T08:28:32;6.53;;;2.93;;
20122;SDS011;10222;50.848;4.336;2023-08-30T08:30:59;4.57;;;2.97;;
20122;SDS011;10222;50.848;4.336;2023-08-30T08:33:26;5.30;;;2.63;;
20122;SDS011;10222;50.848;4.336;2023-08-30T08:35:52;4.23;;;2.63;;
20122;SDS011;10222;50.848;4.336;2023-08-30T08:38:19;5.07;;;2.70;;
20122;SDS011;10222;50.848;4.336;2023-08-30T08:40:45;4.50;;;2.70;;
20122;SDS011;10222;50.848;4.336;2023-08-30T08:43:11;3.27;;;1.97;;
20122;SDS011;10222;50.848;4.336;2023-08-30T08:45:40;4.40;;;2.63;;
20122;SDS011;10222;50.848;4.336;2023-08-30T08:48:06;3.97;;;2.00;;
20122;SDS011;10222;50.848;4.336;2023-08-30T08:50:32;4.67;;;2.83;;
20122;SDS011;10222;50.848;4.336;2023-08-30T08:52:59;3.87;;;2.70;;
20122;SDS011;10222;50.848;4.336;2023-08-30T08:55:26;4.07;;;2.60;;
20122;SDS011;10222;50.848;4.336;2023-08-30T08:57:53;5.93;;;2.67;;
20122;SDS011;10222;50.848;4.336;2023-08-30T09:00:19;6.30;;;2.70;;
20122;SDS011;10222;50.848;4.336;2023-08-30T09:02:45;4.33;;;2.60;;
20122;SDS011;10222;50.848;4.336;2023-08-30T09:05:11;4.10;;;2.63;;
20122;SDS011;10222;50.848;4.336;2023-08-30T09:07:37;5.53;;;2.50;;
20122;SDS011;10222;50.848;4.336;2023-08-30T09:10:03;4.63;;;3.10;;
20122;SDS011;10222;50.848;4.336;2023-08-30T09:12:33;7.40;;;2.90;;
20122;SDS011;10222;50.848;4.336;2023-08-30T09:15:00;3.70;;;2.63;;
20122;SDS011;10222;50.848;4.336;2023-08-30T09:17:39;3.77;;;2.63;;
20122;SDS011;10222;50.848;4.336;2023-08-30T09:20:09;4.93;;;3.20;;
20122;SDS011;10222;50.848;4.336;2023-08-30T09:22:35;5.97;;;3.17;;
20122;SDS011;10222;50.848;4.336;2023-08-30T09:25:04;4.73;;;3.07;;
20122;SDS011;10222;50.848;4.336;2023-08-30T09:27:35;4.80;;;2.87;;
20122;SDS011;10222;50.848;4.336;2023-08-30T09:30:04;6.00;;;3.80;;
20122;SDS011;10222;50.848;4.336;2023-08-30T09:32:30;6.77;;;3.90;;
20122;SDS011;10222;50.848;4.336;2023-08-30T09:34:57;6.00;;;3.57;;
20122;SDS011;10222;50.848;4.336;2023-08-30T09:37:24;4.90;;;3.70;;
20122;SDS011;10222;50.848;4.336;2023-08-30T09:39:51;6.63;;;4.00;;
20122;SDS011;10222;50.848;4.336;2023-08-30T09:42:18;5.77;;;3.60;;
20122;SDS011;10222;50.848;4.336;2023-08-30T09:44:45;4.70;;;3.57;;
20122;SDS011;10222;50.848;4.336;2023-08-30T09:47:12;5.87;;;4.40;;
20122;SDS011;10222;50.848;4.336;2023-08-30T09:49:43;6.80;;;4.00;;
20122;SDS011;10222;50.848;4.336;2023-08-30T09:52:10;7.03;;;3.70;;
20122;SDS011;10222;50.848;4.336;2023-08-30T09:54:36;5.37;;;3.63;;
20122;SDS011;10222;50.848;4.336;2023-08-30T09:57:06;6.70;;;3.43;;
20122;SDS011;10222;50.848;4.336;2023-08-30T09:59:33;4.97;;;3.27;;
20122;SDS011;10222;50.848;4.336;2023-08-30T10:01:59;4.47;;;3.43;;
20122;SDS011;10222;50.848;4.336;2023-08-30T10:04:25;5.57;;;3.70;;
20122;SDS011;10222;50.848;4.336;2023-08-30T10:06:52;5.40;;;3.60;;
20122;SDS011;10222;50.848;4.336;2023-08-30T10:09:19;6.07;;;3.70;;
20122;SDS011;10222;50.848;4.336;2023-08-30T10:11:45;6.37;;;4.03;;
20122;SDS011;10222;50.848;4.336;2023-08-30T10:14:14;6.33;;;4.07;;
20122;SDS011;10222;50.848;4.336;2023-08-30T10:16:41;5.63;;;4.03;;
20122;SDS011;10222;50.848;4.336;2023-08-30T10:19:15;6.63;;;4.50;;
20122;SDS011;10222;50.848;4.336;2023-08-30T10:21:44;7.87;;;4.87;;
20122;SDS011;10222;50.848;4.336;2023-08-30T10:24:12;5.63;;;3.90;;
20122;SDS011;10222;50.848;4.336;2023-08-30T10:26:40;7.10;;;4.00;;
20122;SDS011;10222;50.848;4.336;2023-08-30T10:29:08;7.77;;;4.77;;
20122;SDS011;10222;50.848;4.336;2023-08-30T10:31:34;8.73;;;4.53;;
20122;SDS011;10222;50.848;4.336;2023-08-30T10:34:00;7.23;;;4.40;;
20122;SDS011;10222;50.848;4.336;2023-08-30T10:36:27;6.93;;;4.33;;
20122;SDS011;10222;50.848;4.336;2023-08-30T10:38:53;7.33;;;4.50;;
20122;SDS011;10222;50.848;4.336;2023-08-30T10:41:20;8.30;;;4.33;;
20122;SDS011;10222;50.848;4.336;2023-08-30T10:43:49;4.90;;;3.67;;
20122;SDS011;10222;50.848;4.336;2023-08-30T10:46:16;6.83;;;4.63;;
20122;SDS011;10222;50.848;4.336;2023-08-30T10:48:44;6.33;;;4.50;;
20122;SDS011;10222;50.848;4.336;2023-08-30T10:51:20;5.33;;;4.00;;
20122;SDS011;10222;50.848;4.336;2023-08-30T10:53:57;7.10;;;4.40;;
20122;SDS011;10222;50.848;4.336;2023-08-30T10:56:29;6.57;;;3.80;;
20122;SDS011;10222;50.848;4.336;2023-08-30T10:58:56;6.07;;;4.10;;
20122;SDS011;10222;50.848;4.336;2023-08-30T11:01:22;5.90;;;3.77;;
20122;SDS011;10222;50.848;4.336;2023-08-30T11:03:49;7.97;;;4.20;;
20122;SDS011;10222;50.848;4.336;2023-08-30T11:06:15;6.57;;;4.43;;
20122;SDS011;10222;50.848;4.336;2023-08-30T11:08:42;5.27;;;3.83;;
20122;SDS011;10222;50.848;4.336;2023-08-30T11:11:09;6.33;;;3.70;;
20122;SDS011;10222;50.848;4.336;2023-08-30T11:13:37;5.97;;;3.90;;
20122;SDS011;10222;50.848;4.336;2023-08-30T11:16:03;5.17;;;3.70;;
20122;SDS011;10222;50.848;4.336;2023-08-30T11:18:29;8.13;;;4.43;;
20122;SDS011;10222;50.848;4.336;2023-08-30T11:21:01;5.97;;;3.47;;
20122;SDS011;10222;50.848;4.336;2023-08-30T11:23:28;6.75;;;3.58;;
20122;SDS011;10222;50.848;4.336;2023-08-30T11:25:54;6.67;;;3.97;;
20122;SDS011;10222;50.848;4.336;2023-08-30T11:28:24;5.50;;;3.27;;
20122;SDS011;10222;50.848;4.336;2023-08-30T11:30:53;5.57;;;3.03;;
20122;SDS011;10222;50.848;4.336;2023-08-30T11:33:20;4.97;;;2.90;;
20122;SDS011;10222;50.848;4.336;2023-08-30T11:35:47;4.67;;;2.00;;
20122;SDS011;10222;50.848;4.336;2023-08-30T11:38:14;7.67;;;1.67;;
20122;SDS011;10222;50.848;4.336;2023-08-30T11:40:40;9.43;;;2.07;;
20122;SDS011;10222;50.848;4.336;2023-08-30T11:43:06;6.63;;;1.40;;
20122;SDS011;10222;50.848;4.336;2023-08-30T11:45:33;7.17;;;2.13;;
20122;SDS011;10222;50.848;4.336;2023-08-30T11:48:00;6.33;;;2.20;;
20122;SDS011;10222;50.848;4.336;2023-08-30T11:50:26;6.20;;;2.03;;
20122;SDS011;10222;50.848;4.336;2023-08-30T11:52:52;3.30;;;1.40;;
20122;SDS011;10222;50.848;4.336;2023-08-30T11:55:20;3.20;;;1.70;;
20122;SDS011;10222;50.848;4.336;2023-08-30T11:57:50;4.00;;;1.50;;
20122;SDS011;10222;50.848;4.336;2023-08-30T12:00:18;3.10;;;1.30;;
20122;SDS011;10222;50.848;4.336;2023-08-30T12:02:44;4.20;;;1.33;;
20122;SDS011;10222;50.848;4.336;2023-08-30T12:05:13;5.57;;;1.70;;
20122;SDS011;10222;50.848;4.336;2023-08-30T12:07:40;3.80;;;1.27;;
20122;SDS011;10222;50.848;4.336;2023-08-30T12:12:36;3.83;;;1.30;;
20122;SDS011;10222;50.848;4.336;2023-08-30T12:15:09;4.40;;;1.30;;
20122;SDS011;10222;50.848;4.336;2023-08-30T12:17:35;5.20;;;1.47;;
20122;SDS011;10222;50.848;4.336;2023-08-30T12:20:02;8.17;;;1.63;;
20122;SDS011;10222;50.848;4.336;2023-08-30T12:22:40;6.73;;;1.47;;
20122;SDS011;10222;50.848;4.336;2023-08-30T12:25:28;4.23;;;1.23;;
20122;SDS011;10222;50.848;4.336;2023-08-30T12:27:55;4.27;;;1.30;;
20122;SDS011;10222;50.848;4.336;2023-08-30T12:30:21;5.37;;;1.27;;
20122;SDS011;10222;50.848;4.336;2023-08-30T12:32:47;3.40;;;1.23;;
20122;SDS011;10222;50.848;4.336;2023-08-30T12:35:14;3.73;;;1.50;;
20122;SDS011;10222;50.848;4.336;2023-08-30T12:37:40;4.97;;;1.20;;
20122;SDS011;10222;50.848;4.336;2023-08-30T12:40:06;3.00;;;1.23;;
20122;SDS011;10222;50.848;4.336;2023-08-30T12:42:32;5.90;;;1.87;;
20122;SDS011;10222;50.848;4.336;2023-08-30T12:44:59;5.37;;;1.30;;
20122;SDS011;10222;50.848;4.336;2023-08-30T12:47:25;2.93;;;1.23;;
20122;SDS011;10222;50.848;4.336;2023-08-30T12:49:51;5.43;;;1.60;;
20122;SDS011;10222;50.848;4.336;2023-08-30T12:52:17;5.70;;;1.37;;
20122;SDS011;10222;50.848;4.336;2023-08-30T12:54:43;4.63;;;1.33;;
20122;SDS011;10222;50.848;4.336;2023-08-30T12:57:09;3.00;;;1.20;;
20122;SDS011;10222;50.848;4.336;2023-08-30T12:59:35;6.10;;;1.43;;
20122;SDS011;10222;50.848;4.336;2023-08-30T13:02:01;3.93;;;1.30;;
20122;SDS011;10222;50.848;4.336;2023-08-30T13:04:27;2.43;;;1.13;;
20122;SDS011;10222;50.848;4.336;2023-08-30T13:06:53;7.40;;;1.33;;
20122;SDS011;10222;50.848;4.336;2023-08-30T13:09:20;3.70;;;1.17;;
20122;SDS011;10222;50.848;4.336;2023-08-30T13:11:49;3.80;;;1.27;;
20122;SDS011;10222;50.848;4.336;2023-08-30T13:14:15;2.97;;;1.20;;
20122;SDS011;10222;50.848;4.336;2023-08-30T13:16:41;6.77;;;1.73;;
20122;SDS011;10222;50.848;4.336;2023-08-30T13:19:07;3.60;;;1.20;;
20122;SDS011;10222;50.848;4.336;2023-08-30T13:21:33;6.53;;;0.90;;
20122;SDS011;10222;50.848;4.336;2023-08-30T13:23:59;1.77;;;1.00;;
20122;SDS011;10222;50.848;4.336;2023-08-30T13:26:25;3.93;;;1.00;;
20122;SDS011;10222;50.848;4.336;2023-08-30T13:28:52;1.97;;;1.00;;
20122;SDS011;10222;50.848;4.336;2023-08-30T13:31:18;3.17;;;0.70;;
20122;SDS011;10222;50.848;4.336;2023-08-30T13:33:44;1.93;;;1.10;;
20122;SDS011;10222;50.848;4.336;2023-08-30T13:36:17;1.10;;;0.67;;
20122;SDS011;10222;50.848;4.336;2023-08-30T13:38:48;2.10;;;0.80;;
20122;SDS011;10222;50.848;4.336;2023-08-30T13:41:18;2.13;;;0.80;;
20122;SDS011;10222;50.848;4.336;2023-08-30T13:43:44;3.50;;;1.00;;
20122;SDS011;10222;50.848;4.336;2023-08-30T13:46:17;2.17;;;0.83;;
20122;SDS011;10222;50.848;4.336;2023-08-30T13:48:45;2.80;;;0.70;;
20122;SDS011;10222;50.848;4.336;2023-08-30T13:51:13;1.77;;;0.90;;
20122;SDS011;10222;50.848;4.336;2023-08-30T13:53:39;5.37;;;0.80;;
20122;SDS011;10222;50.848;4.336;2023-08-30T13:56:06;2.23;;;0.70;;
20122;SDS011;10222;50.848;4.336;2023-08-30T13:58:32;6.93;;;0.97;;
20122;SDS011;10222;50.848;4.336;2023-08-30T14:00:58;5.53;;;1.33;;
20122;SDS011;10222;50.848;4.336;2023-08-30T14:03:24;3.90;;;1.20;;
20122;SDS011;10222;50.848;4.336;2023-08-30T14:05:50;8.23;;;1.27;;
20122;SDS011;10222;50.848;4.336;2023-08-30T14:08:16;1.97;;;0.83;;
20122;SDS011;10222;50.848;4.336;2023-08-30T14:10:43;4.33;;;0.93;;
20122;SDS011;10222;50.848;4.336;2023-08-30T14:13:09;5.17;;;0.87;;
20122;SDS011;10222;50.848;4.336;2023-08-30T14:15:35;4.03;;;1.13;;
20122;SDS011;10222;50.848;4.336;2023-08-30T14:18:01;3.27;;;0.90;;
20122;SDS011;10222;50.848;4.336;2023-08-30T14:20:35;5.33;;;1.27;;
20122;SDS011;10222;50.848;4.336;2023-08-30T14:23:03;1.13;;;0.63;;
20122;SDS011;10222;50.848;4.336;2023-08-30T14:25:29;2.83;;;0.87;;
20122;SDS011;10222;50.848;4.336;2023-08-30T14:27:56;8.67;;;1.30;;
20122;SDS011;10222;50.848;4.336;2023-08-30T14:30:22;1.80;;;0.90;;
20122;SDS011;10222;50.848;4.336;2023-08-30T14:32:48;4.57;;;1.10;;
20122;SDS011;10222;50.848;4.336;2023-08-30T14:35:14;1.87;;;0.90;;
20122;SDS011;10222;50.848;4.336;2023-08-30T14:37:40;4.47;;;1.30;;
20122;SDS011;10222;50.848;4.336;2023-08-30T14:40:07;5.50;;;1.00;;
20122;SDS011;10222;50.848;4.336;2023-08-30T14:42:33;1.87;;;0.77;;
20122;SDS011;10222;50.848;4.336;2023-08-30T14:44:59;3.40;;;1.00;;
20122;SDS011;10222;50.848;4.336;2023-08-30T14:47:25;3.90;;;0.90;;
20122;SDS011;10222;50.848;4.336;2023-08-30T14:49:51;1.53;;;0.70;;